KDAG/DAG METAR and TAF weather

Enter ICAO airport designator
Station Type Date Time Source
KDAG METAR 2018/12/12 15:50 UTC NOAA

KDAG 121550Z AUTO 25012KT 10SM CLR 07/02 A3007 RMK AO2 SLP179 T00670017


Station Type Date Time Source
KDAG Decoded METAR 2018/12/12 15:50 UTC NOAA

BARSTOW-DAGGETT AIRPORT, CA, United States (KDAG) 34-51N 116-47W 587M
Dec 12, 2018 - 10:50 AM EST / 2018.12.12 1550 UTC
Wind: from the WSW (250 degrees) at 14 MPH (12 KT):0
Visibility: 10 mile(s):0
Sky conditions: clear
Temperature: 44.1 F (6.7 C)
Dew Point: 35.1 F (1.7 C)
Relative Humidity: 70%
Pressure (altimeter): 30.07 in. Hg (1018 hPa)
ob: KDAG 121550Z AUTO 25012KT 10SM CLR 07/02 A3007 RMK AO2 SLP179 T00670017
cycle: 16

Station Type Date Time Source
KDAG TAF 2018/12/12 12:33 UTC NOAA

TAF KDAG 121130Z 1212/1312 27012KT P6SM FEW250
FM122100 01011KT P6SM FEW250
FM130100 VRB05KT P6SM FEW250


Example: see airport list